sensor_id;sensor_type;location;lat;lon;timestamp;P1;durP1;ratioP1;P2;durP2;ratioP2
7375;SDS011;3728;42.266;24.944;2024-03-08T00:00:13;29.30;;;19.20;;
7375;SDS011;3728;42.266;24.944;2024-03-08T00:02:45;43.43;;;29.57;;
7375;SDS011;3728;42.266;24.944;2024-03-08T00:05:14;58.57;;;41.50;;
7375;SDS011;3728;42.266;24.944;2024-03-08T00:07:42;57.27;;;39.90;;
7375;SDS011;3728;42.266;24.944;2024-03-08T00:10:11;49.67;;;39.87;;
7375;SDS011;3728;42.266;24.944;2024-03-08T00:12:41;54.27;;;42.73;;
7375;SDS011;3728;42.266;24.944;2024-03-08T00:15:11;68.07;;;52.27;;
7375;SDS011;3728;42.266;24.944;2024-03-08T00:17:45;52.77;;;43.30;;
7375;SDS011;3728;42.266;24.944;2024-03-08T00:20:14;32.70;;;25.27;;
7375;SDS011;3728;42.266;24.944;2024-03-08T00:22:45;27.87;;;18.80;;
7375;SDS011;3728;42.266;24.944;2024-03-08T00:25:14;20.33;;;15.87;;
7375;SDS011;3728;42.266;24.944;2024-03-08T00:27:42;17.53;;;12.47;;
7375;SDS011;3728;42.266;24.944;2024-03-08T00:30:10;30.90;;;21.60;;
7375;SDS011;3728;42.266;24.944;2024-03-08T00:32:39;33.93;;;25.90;;
7375;SDS011;3728;42.266;24.944;2024-03-08T00:35:08;43.43;;;29.30;;
7375;SDS011;3728;42.266;24.944;2024-03-08T00:37:36;21.13;;;17.07;;
7375;SDS011;3728;42.266;24.944;2024-03-08T00:40:04;18.87;;;12.97;;
7375;SDS011;3728;42.266;24.944;2024-03-08T00:42:33;15.13;;;12.43;;
7375;SDS011;3728;42.266;24.944;2024-03-08T00:45:01;15.70;;;12.07;;
7375;SDS011;3728;42.266;24.944;2024-03-08T00:47:29;14.50;;;11.57;;
7375;SDS011;3728;42.266;24.944;2024-03-08T00:49:57;12.93;;;11.27;;
7375;SDS011;3728;42.266;24.944;2024-03-08T00:52:24;15.63;;;12.17;;
7375;SDS011;3728;42.266;24.944;2024-03-08T00:54:52;18.03;;;11.93;;
7375;SDS011;3728;42.266;24.944;2024-03-08T00:57:19;14.80;;;11.43;;
7375;SDS011;3728;42.266;24.944;2024-03-08T00:59:48;17.30;;;11.67;;
7375;SDS011;3728;42.266;24.944;2024-03-08T01:02:16;15.73;;;10.90;;
7375;SDS011;3728;42.266;24.944;2024-03-08T01:04:45;14.53;;;11.07;;
7375;SDS011;3728;42.266;24.944;2024-03-08T01:07:14;15.93;;;11.70;;
7375;SDS011;3728;42.266;24.944;2024-03-08T01:09:41;17.27;;;12.17;;
7375;SDS011;3728;42.266;24.944;2024-03-08T01:12:10;13.33;;;11.23;;
7375;SDS011;3728;42.266;24.944;2024-03-08T01:14:38;16.20;;;11.30;;
7375;SDS011;3728;42.266;24.944;2024-03-08T01:17:05;15.47;;;11.03;;
7375;SDS011;3728;42.266;24.944;2024-03-08T01:19:33;17.30;;;10.90;;
7375;SDS011;3728;42.266;24.944;2024-03-08T01:22:00;14.07;;;11.07;;
7375;SDS011;3728;42.266;24.944;2024-03-08T01:24:28;14.63;;;10.10;;
7375;SDS011;3728;42.266;24.944;2024-03-08T01:26:55;15.27;;;11.13;;
7375;SDS011;3728;42.266;24.944;2024-03-08T01:29:23;13.00;;;10.17;;
7375;SDS011;3728;42.266;24.944;2024-03-08T01:31:50;13.60;;;10.53;;
7375;SDS011;3728;42.266;24.944;2024-03-08T01:34:19;12.33;;;10.00;;
7375;SDS011;3728;42.266;24.944;2024-03-08T01:36:47;12.90;;;10.57;;
7375;SDS011;3728;42.266;24.944;2024-03-08T01:39:15;11.23;;;9.30;;
7375;SDS011;3728;42.266;24.944;2024-03-08T01:41:43;13.50;;;9.77;;
7375;SDS011;3728;42.266;24.944;2024-03-08T01:44:11;11.93;;;9.60;;
7375;SDS011;3728;42.266;24.944;2024-03-08T01:46:42;12.30;;;9.83;;
7375;SDS011;3728;42.266;24.944;2024-03-08T01:49:11;16.20;;;10.40;;
7375;SDS011;3728;42.266;24.944;2024-03-08T01:51:40;14.43;;;11.30;;
7375;SDS011;3728;42.266;24.944;2024-03-08T01:54:08;11.60;;;10.03;;
7375;SDS011;3728;42.266;24.944;2024-03-08T01:56:39;13.37;;;10.70;;
7375;SDS011;3728;42.266;24.944;2024-03-08T01:59:07;12.90;;;10.10;;
7375;SDS011;3728;42.266;24.944;2024-03-08T02:01:35;14.90;;;11.07;;
7375;SDS011;3728;42.266;24.944;2024-03-08T02:04:02;13.17;;;10.77;;
7375;SDS011;3728;42.266;24.944;2024-03-08T02:06:32;15.13;;;10.97;;
7375;SDS011;3728;42.266;24.944;2024-03-08T02:09:00;15.73;;;10.87;;
7375;SDS011;3728;42.266;24.944;2024-03-08T02:11:35;13.00;;;10.60;;
7375;SDS011;3728;42.266;24.944;2024-03-08T02:14:03;14.47;;;10.17;;
7375;SDS011;3728;42.266;24.944;2024-03-08T02:16:33;16.57;;;11.50;;
7375;SDS011;3728;42.266;24.944;2024-03-08T02:19:00;15.67;;;10.97;;
7375;SDS011;3728;42.266;24.944;2024-03-08T02:21:28;17.53;;;11.30;;
7375;SDS011;3728;42.266;24.944;2024-03-08T02:23:57;12.37;;;10.13;;
7375;SDS011;3728;42.266;24.944;2024-03-08T02:26:25;14.43;;;11.27;;
7375;SDS011;3728;42.266;24.944;2024-03-08T02:28:53;16.27;;;11.53;;
7375;SDS011;3728;42.266;24.944;2024-03-08T02:31:20;14.67;;;11.57;;
7375;SDS011;3728;42.266;24.944;2024-03-08T02:33:48;17.80;;;12.47;;
7375;SDS011;3728;42.266;24.944;2024-03-08T02:36:15;14.67;;;11.53;;
7375;SDS011;3728;42.266;24.944;2024-03-08T02:38:43;16.07;;;11.70;;
7375;SDS011;3728;42.266;24.944;2024-03-08T02:41:11;14.53;;;11.37;;
7375;SDS011;3728;42.266;24.944;2024-03-08T02:43:38;16.87;;;12.73;;
7375;SDS011;3728;42.266;24.944;2024-03-08T02:46:06;18.50;;;12.13;;
7375;SDS011;3728;42.266;24.944;2024-03-08T02:48:33;15.43;;;12.77;;
7375;SDS011;3728;42.266;24.944;2024-03-08T02:51:01;17.40;;;13.00;;
7375;SDS011;3728;42.266;24.944;2024-03-08T02:53:30;14.23;;;11.53;;
7375;SDS011;3728;42.266;24.944;2024-03-08T02:55:57;14.03;;;11.70;;
7375;SDS011;3728;42.266;24.944;2024-03-08T02:58:25;15.50;;;10.87;;
7375;SDS011;3728;42.266;24.944;2024-03-08T03:00:53;13.63;;;11.27;;
7375;SDS011;3728;42.266;24.944;2024-03-08T03:03:21;14.23;;;11.43;;
7375;SDS011;3728;42.266;24.944;2024-03-08T03:05:49;17.27;;;11.10;;
7375;SDS011;3728;42.266;24.944;2024-03-08T03:08:16;14.63;;;11.00;;
7375;SDS011;3728;42.266;24.944;2024-03-08T03:10:44;14.20;;;11.43;;
7375;SDS011;3728;42.266;24.944;2024-03-08T03:13:12;16.07;;;11.07;;
7375;SDS011;3728;42.266;24.944;2024-03-08T03:15:43;13.97;;;11.43;;
7375;SDS011;3728;42.266;24.944;2024-03-08T03:18:10;14.13;;;11.33;;
7375;SDS011;3728;42.266;24.944;2024-03-08T03:20:38;14.47;;;10.50;;
7375;SDS011;3728;42.266;24.944;2024-03-08T03:23:10;13.23;;;10.73;;
7375;SDS011;3728;42.266;24.944;2024-03-08T03:25:41;14.30;;;10.70;;
7375;SDS011;3728;42.266;24.944;2024-03-08T03:28:09;13.27;;;9.90;;
7375;SDS011;3728;42.266;24.944;2024-03-08T03:30:38;14.43;;;11.07;;
7375;SDS011;3728;42.266;24.944;2024-03-08T03:33:08;13.90;;;10.73;;
7375;SDS011;3728;42.266;24.944;2024-03-08T03:35:36;12.63;;;9.97;;
7375;SDS011;3728;42.266;24.944;2024-03-08T03:38:04;14.30;;;10.57;;
7375;SDS011;3728;42.266;24.944;2024-03-08T03:40:38;14.10;;;10.90;;
7375;SDS011;3728;42.266;24.944;2024-03-08T03:43:07;12.90;;;10.00;;
7375;SDS011;3728;42.266;24.944;2024-03-08T03:45:36;14.33;;;11.60;;
7375;SDS011;3728;42.266;24.944;2024-03-08T03:48:05;16.50;;;11.60;;
7375;SDS011;3728;42.266;24.944;2024-03-08T03:50:36;14.97;;;11.10;;
7375;SDS011;3728;42.266;24.944;2024-03-08T03:53:04;14.10;;;11.57;;
7375;SDS011;3728;42.266;24.944;2024-03-08T03:55:36;15.37;;;11.43;;
7375;SDS011;3728;42.266;24.944;2024-03-08T03:58:06;14.80;;;11.03;;
7375;SDS011;3728;42.266;24.944;2024-03-08T04:00:34;13.57;;;11.30;;
7375;SDS011;3728;42.266;24.944;2024-03-08T04:03:02;14.10;;;11.47;;
7375;SDS011;3728;42.266;24.944;2024-03-08T04:05:30;15.13;;;10.77;;
7375;SDS011;3728;42.266;24.944;2024-03-08T04:07:58;12.43;;;9.93;;
7375;SDS011;3728;42.266;24.944;2024-03-08T04:10:27;12.73;;;10.17;;
7375;SDS011;3728;42.266;24.944;2024-03-08T04:12:55;14.30;;;10.03;;
7375;SDS011;3728;42.266;24.944;2024-03-08T04:15:24;15.13;;;10.07;;
7375;SDS011;3728;42.266;24.944;2024-03-08T04:17:51;11.93;;;9.60;;
7375;SDS011;3728;42.266;24.944;2024-03-08T04:20:21;12.53;;;10.40;;
7375;SDS011;3728;42.266;24.944;2024-03-08T04:22:49;13.20;;;9.73;;
7375;SDS011;3728;42.266;24.944;2024-03-08T04:25:18;13.40;;;10.23;;
7375;SDS011;3728;42.266;24.944;2024-03-08T04:27:46;12.90;;;9.73;;
7375;SDS011;3728;42.266;24.944;2024-03-08T04:30:16;13.30;;;9.43;;
7375;SDS011;3728;42.266;24.944;2024-03-08T04:32:45;13.50;;;10.43;;
7375;SDS011;3728;42.266;24.944;2024-03-08T04:35:14;12.03;;;10.30;;
7375;SDS011;3728;42.266;24.944;2024-03-08T04:37:42;10.93;;;9.83;;
7375;SDS011;3728;42.266;24.944;2024-03-08T04:40:09;12.97;;;10.30;;
7375;SDS011;3728;42.266;24.944;2024-03-08T04:42:38;14.80;;;10.53;;
7375;SDS011;3728;42.266;24.944;2024-03-08T04:45:08;15.37;;;10.90;;
7375;SDS011;3728;42.266;24.944;2024-03-08T04:47:38;14.80;;;10.70;;
7375;SDS011;3728;42.266;24.944;2024-03-08T04:50:06;16.90;;;11.30;;
7375;SDS011;3728;42.266;24.944;2024-03-08T04:52:38;13.67;;;10.57;;
7375;SDS011;3728;42.266;24.944;2024-03-08T04:55:06;13.10;;;10.70;;
7375;SDS011;3728;42.266;24.944;2024-03-08T04:57:34;16.30;;;11.57;;
7375;SDS011;3728;42.266;24.944;2024-03-08T05:00:02;16.10;;;11.33;;
7375;SDS011;3728;42.266;24.944;2024-03-08T05:02:37;16.60;;;11.90;;
7375;SDS011;3728;42.266;24.944;2024-03-08T05:05:05;16.53;;;11.37;;
7375;SDS011;3728;42.266;24.944;2024-03-08T05:07:33;17.00;;;11.60;;
7375;SDS011;3728;42.266;24.944;2024-03-08T05:10:01;15.83;;;12.00;;
7375;SDS011;3728;42.266;24.944;2024-03-08T05:12:29;14.37;;;11.53;;
7375;SDS011;3728;42.266;24.944;2024-03-08T05:14:57;13.27;;;11.20;;
7375;SDS011;3728;42.266;24.944;2024-03-08T05:17:25;18.97;;;11.30;;
7375;SDS011;3728;42.266;24.944;2024-03-08T05:19:53;17.90;;;11.83;;
7375;SDS011;3728;42.266;24.944;2024-03-08T05:22:20;15.87;;;11.63;;
7375;SDS011;3728;42.266;24.944;2024-03-08T05:24:47;16.90;;;11.93;;
7375;SDS011;3728;42.266;24.944;2024-03-08T05:27:15;15.00;;;11.73;;
7375;SDS011;3728;42.266;24.944;2024-03-08T05:29:43;17.83;;;12.17;;
7375;SDS011;3728;42.266;24.944;2024-03-08T05:32:10;15.70;;;11.00;;
7375;SDS011;3728;42.266;24.944;2024-03-08T05:34:38;17.23;;;11.13;;
7375;SDS011;3728;42.266;24.944;2024-03-08T05:37:06;17.90;;;11.07;;
7375;SDS011;3728;42.266;24.944;2024-03-08T05:39:33;17.03;;;11.70;;
7375;SDS011;3728;42.266;24.944;2024-03-08T05:42:01;17.13;;;12.93;;
7375;SDS011;3728;42.266;24.944;2024-03-08T05:44:28;19.90;;;12.00;;
7375;SDS011;3728;42.266;24.944;2024-03-08T05:46:57;16.13;;;11.50;;
7375;SDS011;3728;42.266;24.944;2024-03-08T05:49:25;15.73;;;11.20;;
7375;SDS011;3728;42.266;24.944;2024-03-08T05:51:52;17.03;;;12.27;;
7375;SDS011;3728;42.266;24.944;2024-03-08T05:54:21;16.60;;;12.00;;
7375;SDS011;3728;42.266;24.944;2024-03-08T05:56:52;17.00;;;12.20;;
7375;SDS011;3728;42.266;24.944;2024-03-08T05:59:21;14.87;;;12.03;;
7375;SDS011;3728;42.266;24.944;2024-03-08T06:01:50;17.10;;;12.27;;
7375;SDS011;3728;42.266;24.944;2024-03-08T06:04:18;18.43;;;12.27;;
7375;SDS011;3728;42.266;24.944;2024-03-08T06:06:45;18.73;;;12.47;;
7375;SDS011;3728;42.266;24.944;2024-03-08T06:09:17;16.00;;;12.20;;
7375;SDS011;3728;42.266;24.944;2024-03-08T06:11:55;14.23;;;11.37;;
7375;SDS011;3728;42.266;24.944;2024-03-08T06:14:24;15.53;;;12.03;;
7375;SDS011;3728;42.266;24.944;2024-03-08T06:16:51;17.60;;;12.20;;
7375;SDS011;3728;42.266;24.944;2024-03-08T06:19:19;21.23;;;11.97;;
7375;SDS011;3728;42.266;24.944;2024-03-08T06:21:46;14.13;;;11.37;;
7375;SDS011;3728;42.266;24.944;2024-03-08T06:24:15;18.23;;;12.07;;
7375;SDS011;3728;42.266;24.944;2024-03-08T06:26:46;18.07;;;12.70;;
7375;SDS011;3728;42.266;24.944;2024-03-08T06:29:15;19.77;;;13.90;;
7375;SDS011;3728;42.266;24.944;2024-03-08T06:31:43;16.90;;;13.00;;
7375;SDS011;3728;42.266;24.944;2024-03-08T06:34:12;19.50;;;13.83;;
7375;SDS011;3728;42.266;24.944;2024-03-08T06:36:42;16.70;;;13.93;;
7375;SDS011;3728;42.266;24.944;2024-03-08T06:39:12;18.47;;;13.33;;
7375;SDS011;3728;42.266;24.944;2024-03-08T06:41:40;21.70;;;13.80;;
7375;SDS011;3728;42.266;24.944;2024-03-08T06:44:07;18.90;;;12.07;;
7375;SDS011;3728;42.266;24.944;2024-03-08T06:46:35;20.03;;;13.17;;
7375;SDS011;3728;42.266;24.944;2024-03-08T06:49:05;20.43;;;12.67;;
7375;SDS011;3728;42.266;24.944;2024-03-08T06:51:33;17.47;;;13.57;;
7375;SDS011;3728;42.266;24.944;2024-03-08T06:54:01;18.10;;;12.90;;
7375;SDS011;3728;42.266;24.944;2024-03-08T06:56:35;20.73;;;14.00;;
7375;SDS011;3728;42.266;24.944;2024-03-08T06:59:03;17.13;;;13.17;;
7375;SDS011;3728;42.266;24.944;2024-03-08T07:01:30;18.33;;;13.03;;
7375;SDS011;3728;42.266;24.944;2024-03-08T07:03:58;20.00;;;14.33;;
7375;SDS011;3728;42.266;24.944;2024-03-08T07:06:28;22.70;;;14.53;;
7375;SDS011;3728;42.266;24.944;2024-03-08T07:08:56;23.17;;;15.60;;
7375;SDS011;3728;42.266;24.944;2024-03-08T07:11:23;19.00;;;14.23;;
7375;SDS011;3728;42.266;24.944;2024-03-08T07:13:50;19.63;;;14.87;;
7375;SDS011;3728;42.266;24.944;2024-03-08T07:16:18;19.23;;;14.57;;
7375;SDS011;3728;42.266;24.944;2024-03-08T07:18:47;18.57;;;14.57;;
7375;SDS011;3728;42.266;24.944;2024-03-08T07:21:20;25.90;;;16.40;;
7375;SDS011;3728;42.266;24.944;2024-03-08T07:23:47;23.10;;;14.57;;
7375;SDS011;3728;42.266;24.944;2024-03-08T07:26:27;23.37;;;14.10;;
7375;SDS011;3728;42.266;24.944;2024-03-08T07:28:54;21.60;;;14.00;;
7375;SDS011;3728;42.266;24.944;2024-03-08T07:31:22;25.10;;;16.00;;
7375;SDS011;3728;42.266;24.944;2024-03-08T07:34:01;21.93;;;15.00;;
7375;SDS011;3728;42.266;24.944;2024-03-08T07:36:29;24.07;;;15.90;;
7375;SDS011;3728;42.266;24.944;2024-03-08T07:38:57;22.03;;;15.20;;
7375;SDS011;3728;42.266;24.944;2024-03-08T07:41:25;22.27;;;14.97;;
7375;SDS011;3728;42.266;24.944;2024-03-08T07:43:52;21.13;;;15.17;;
7375;SDS011;3728;42.266;24.944;2024-03-08T07:46:20;22.37;;;15.27;;
7375;SDS011;3728;42.266;24.944;2024-03-08T07:48:47;22.50;;;15.70;;
7375;SDS011;3728;42.266;24.944;2024-03-08T07:51:16;24.33;;;15.90;;
7375;SDS011;3728;42.266;24.944;2024-03-08T07:53:44;20.47;;;14.97;;
7375;SDS011;3728;42.266;24.944;2024-03-08T07:56:13;21.40;;;15.53;;
7375;SDS011;3728;42.266;24.944;2024-03-08T07:58:46;24.03;;;15.80;;
7375;SDS011;3728;42.266;24.944;2024-03-08T08:01:16;22.47;;;15.40;;
7375;SDS011;3728;42.266;24.944;2024-03-08T08:03:47;23.80;;;15.07;;
7375;SDS011;3728;42.266;24.944;2024-03-08T08:06:16;22.73;;;15.57;;
7375;SDS011;3728;42.266;24.944;2024-03-08T08:08:46;20.87;;;14.17;;
7375;SDS011;3728;42.266;24.944;2024-03-08T08:11:14;18.17;;;14.47;;
7375;SDS011;3728;42.266;24.944;2024-03-08T08:13:43;20.50;;;14.90;;
7375;SDS011;3728;42.266;24.944;2024-03-08T08:16:10;19.47;;;14.23;;
7375;SDS011;3728;42.266;24.944;2024-03-08T08:18:39;20.13;;;14.77;;
7375;SDS011;3728;42.266;24.944;2024-03-08T08:21:08;23.80;;;17.00;;
7375;SDS011;3728;42.266;24.944;2024-03-08T08:23:37;19.43;;;13.50;;
7375;SDS011;3728;42.266;24.944;2024-03-08T08:26:06;17.50;;;13.87;;
7375;SDS011;3728;42.266;24.944;2024-03-08T08:28:34;23.83;;;15.90;;
7375;SDS011;3728;42.266;24.944;2024-03-08T08:31:02;24.00;;;15.30;;
7375;SDS011;3728;42.266;24.944;2024-03-08T08:33:32;19.30;;;13.57;;
7375;SDS011;3728;42.266;24.944;2024-03-08T08:36:02;18.03;;;13.43;;
7375;SDS011;3728;42.266;24.944;2024-03-08T08:38:30;21.50;;;15.13;;
7375;SDS011;3728;42.266;24.944;2024-03-08T08:40:59;22.43;;;14.20;;
7375;SDS011;3728;42.266;24.944;2024-03-08T08:43:27;18.87;;;13.77;;
7375;SDS011;3728;42.266;24.944;2024-03-08T08:45:54;20.53;;;14.23;;
7375;SDS011;3728;42.266;24.944;2024-03-08T08:48:23;18.30;;;13.63;;
7375;SDS011;3728;42.266;24.944;2024-03-08T08:50:51;21.47;;;13.80;;
7375;SDS011;3728;42.266;24.944;2024-03-08T08:53:18;19.17;;;13.37;;
7375;SDS011;3728;42.266;24.944;2024-03-08T08:55:46;22.57;;;14.60;;
7375;SDS011;3728;42.266;24.944;2024-03-08T08:58:13;20.30;;;13.17;;
7375;SDS011;3728;42.266;24.944;2024-03-08T09:00:41;19.70;;;14.07;;
7375;SDS011;3728;42.266;24.944;2024-03-08T09:03:11;19.10;;;13.77;;
7375;SDS011;3728;42.266;24.944;2024-03-08T09:05:39;22.03;;;13.30;;
7375;SDS011;3728;42.266;24.944;2024-03-08T09:08:11;21.87;;;13.00;;
7375;SDS011;3728;42.266;24.944;2024-03-08T09:10:39;19.13;;;12.77;;
7375;SDS011;3728;42.266;24.944;2024-03-08T09:13:07;19.33;;;13.00;;
7375;SDS011;3728;42.266;24.944;2024-03-08T09:15:43;18.30;;;13.10;;
7375;SDS011;3728;42.266;24.944;2024-03-08T09:18:10;18.30;;;13.90;;
7375;SDS011;3728;42.266;24.944;2024-03-08T09:20:38;21.43;;;13.90;;
7375;SDS011;3728;42.266;24.944;2024-03-08T09:23:08;18.57;;;12.87;;
7375;SDS011;3728;42.266;24.944;2024-03-08T09:25:35;18.87;;;13.07;;
7375;SDS011;3728;42.266;24.944;2024-03-08T09:28:03;20.47;;;13.17;;
7375;SDS011;3728;42.266;24.944;2024-03-08T09:30:33;20.10;;;13.70;;
7375;SDS011;3728;42.266;24.944;2024-03-08T09:33:01;18.87;;;13.17;;
7375;SDS011;3728;42.266;24.944;2024-03-08T09:35:29;21.37;;;13.70;;
7375;SDS011;3728;42.266;24.944;2024-03-08T09:37:59;19.13;;;13.60;;
7375;SDS011;3728;42.266;24.944;2024-03-08T09:40:27;18.17;;;13.80;;
7375;SDS011;3728;42.266;24.944;2024-03-08T09:42:55;16.63;;;12.07;;
7375;SDS011;3728;42.266;24.944;2024-03-08T09:45:23;19.77;;;13.90;;
7375;SDS011;3728;42.266;24.944;2024-03-08T09:47:52;19.17;;;14.13;;
7375;SDS011;3728;42.266;24.944;2024-03-08T09:50:21;18.57;;;13.40;;
7375;SDS011;3728;42.266;24.944;2024-03-08T09:52:49;16.57;;;12.87;;
7375;SDS011;3728;42.266;24.944;2024-03-08T09:55:19;18.27;;;13.93;;
7375;SDS011;3728;42.266;24.944;2024-03-08T09:57:49;18.43;;;13.50;;
7375;SDS011;3728;42.266;24.944;2024-03-08T10:00:37;19.00;;;13.37;;
7375;SDS011;3728;42.266;24.944;2024-03-08T10:03:04;19.73;;;14.30;;
7375;SDS011;3728;42.266;24.944;2024-03-08T10:05:33;19.27;;;13.40;;
7375;SDS011;3728;42.266;24.944;2024-03-08T10:08:01;20.90;;;13.40;;
7375;SDS011;3728;42.266;24.944;2024-03-08T10:10:28;19.63;;;14.50;;
7375;SDS011;3728;42.266;24.944;2024-03-08T10:12:56;16.83;;;12.67;;
7375;SDS011;3728;42.266;24.944;2024-03-08T10:15:27;18.53;;;13.37;;
7375;SDS011;3728;42.266;24.944;2024-03-08T10:18:04;16.83;;;12.57;;
7375;SDS011;3728;42.266;24.944;2024-03-08T10:20:33;16.87;;;12.13;;
7375;SDS011;3728;42.266;24.944;2024-03-08T10:23:01;15.90;;;11.90;;
7375;SDS011;3728;42.266;24.944;2024-03-08T10:25:38;15.97;;;12.90;;
7375;SDS011;3728;42.266;24.944;2024-03-08T10:28:08;16.27;;;13.17;;
7375;SDS011;3728;42.266;24.944;2024-03-08T10:30:36;20.83;;;13.33;;
7375;SDS011;3728;42.266;24.944;2024-03-08T10:33:04;17.10;;;11.13;;
7375;SDS011;3728;42.266;24.944;2024-03-08T10:35:33;19.30;;;11.87;;
7375;SDS011;3728;42.266;24.944;2024-03-08T10:38:01;14.33;;;10.63;;
7375;SDS011;3728;42.266;24.944;2024-03-08T10:40:34;14.33;;;10.40;;
7375;SDS011;3728;42.266;24.944;2024-03-08T10:43:06;12.97;;;10.17;;
7375;SDS011;3728;42.266;24.944;2024-03-08T10:45:46;14.63;;;11.07;;
7375;SDS011;3728;42.266;24.944;2024-03-08T10:50:47;14.37;;;12.07;;
7375;SDS011;3728;42.266;24.944;2024-03-08T10:53:19;15.27;;;11.97;;
7375;SDS011;3728;42.266;24.944;2024-03-08T10:55:49;14.63;;;11.23;;
7375;SDS011;3728;42.266;24.944;2024-03-08T10:58:27;16.20;;;11.67;;
7375;SDS011;3728;42.266;24.944;2024-03-08T11:00:55;18.70;;;11.00;;
7375;SDS011;3728;42.266;24.944;2024-03-08T11:06:18;15.20;;;11.13;;
7375;SDS011;3728;42.266;24.944;2024-03-08T11:08:58;13.27;;;11.30;;
7375;SDS011;3728;42.266;24.944;2024-03-08T11:11:29;31.53;;;12.53;;
7375;SDS011;3728;42.266;24.944;2024-03-08T11:14:03;15.03;;;11.43;;
7375;SDS011;3728;42.266;24.944;2024-03-08T11:21:38;12.93;;;10.23;;
7375;SDS011;3728;42.266;24.944;2024-03-08T11:24:06;16.93;;;10.90;;
7375;SDS011;3728;42.266;24.944;2024-03-08T11:26:38;11.17;;;8.73;;
7375;SDS011;3728;42.266;24.944;2024-03-08T11:32:07;16.60;;;9.40;;
7375;SDS011;3728;42.266;24.944;2024-03-08T11:34:39;14.40;;;10.13;;
7375;SDS011;3728;42.266;24.944;2024-03-08T11:37:19;15.53;;;10.73;;
7375;SDS011;3728;42.266;24.944;2024-03-08T11:39:48;16.13;;;11.97;;
7375;SDS011;3728;42.266;24.944;2024-03-08T11:42:25;13.47;;;9.57;;
7375;SDS011;3728;42.266;24.944;2024-03-08T11:44:53;12.37;;;9.83;;
7375;SDS011;3728;42.266;24.944;2024-03-08T11:47:21;18.03;;;10.60;;
7375;SDS011;3728;42.266;24.944;2024-03-08T11:49:49;16.33;;;11.30;;
7375;SDS011;3728;42.266;24.944;2024-03-08T11:52:17;14.47;;;10.33;;
7375;SDS011;3728;42.266;24.944;2024-03-08T11:54:53;13.17;;;9.97;;
7375;SDS011;3728;42.266;24.944;2024-03-08T11:57:26;14.47;;;11.37;;
7375;SDS011;3728;42.266;24.944;2024-03-08T11:59:55;13.67;;;10.37;;
7375;SDS011;3728;42.266;24.944;2024-03-08T12:02:24;14.73;;;10.63;;
7375;SDS011;3728;42.266;24.944;2024-03-08T12:04:56;14.03;;;11.33;;
7375;SDS011;3728;42.266;24.944;2024-03-08T12:07:28;15.70;;;12.37;;
7375;SDS011;3728;42.266;24.944;2024-03-08T12:10:15;13.83;;;11.73;;
7375;SDS011;3728;42.266;24.944;2024-03-08T12:12:46;14.33;;;10.73;;
7375;SDS011;3728;42.266;24.944;2024-03-08T12:15:20;14.60;;;10.20;;
7375;SDS011;3728;42.266;24.944;2024-03-08T12:17:52;12.40;;;10.70;;
7375;SDS011;3728;42.266;24.944;2024-03-08T12:20:23;17.27;;;11.53;;
7375;SDS011;3728;42.266;24.944;2024-03-08T12:22:58;11.53;;;9.93;;
7375;SDS011;3728;42.266;24.944;2024-03-08T12:25:27;12.47;;;9.67;;
7375;SDS011;3728;42.266;24.944;2024-03-08T12:28:11;12.57;;;10.33;;
7375;SDS011;3728;42.266;24.944;2024-03-08T12:30:48;12.33;;;9.13;;
7375;SDS011;3728;42.266;24.944;2024-03-08T12:33:50;12.80;;;10.60;;
7375;SDS011;3728;42.266;24.944;2024-03-08T12:36:22;13.43;;;10.50;;
7375;SDS011;3728;42.266;24.944;2024-03-08T12:38:50;12.13;;;10.23;;
7375;SDS011;3728;42.266;24.944;2024-03-08T12:41:18;16.67;;;9.93;;
7375;SDS011;3728;42.266;24.944;2024-03-08T12:43:50;11.87;;;10.20;;
7375;SDS011;3728;42.266;24.944;2024-03-08T12:46:18;12.53;;;9.83;;
7375;SDS011;3728;42.266;24.944;2024-03-08T12:48:53;14.17;;;10.30;;
7375;SDS011;3728;42.266;24.944;2024-03-08T12:51:21;15.33;;;10.63;;
7375;SDS011;3728;42.266;24.944;2024-03-08T12:53:51;14.63;;;11.10;;
7375;SDS011;3728;42.266;24.944;2024-03-08T12:56:32;15.43;;;11.23;;
7375;SDS011;3728;42.266;24.944;2024-03-08T12:59:03;13.17;;;9.43;;
7375;SDS011;3728;42.266;24.944;2024-03-08T13:01:35;13.00;;;10.40;;
7375;SDS011;3728;42.266;24.944;2024-03-08T13:04:07;13.33;;;9.80;;
7375;SDS011;3728;42.266;24.944;2024-03-08T13:06:39;19.63;;;9.97;;
7375;SDS011;3728;42.266;24.944;2024-03-08T13:09:10;13.17;;;10.07;;
7375;SDS011;3728;42.266;24.944;2024-03-08T13:11:38;11.60;;;9.60;;
7375;SDS011;3728;42.266;24.944;2024-03-08T13:14:06;12.60;;;10.10;;
7375;SDS011;3728;42.266;24.944;2024-03-08T13:16:38;13.77;;;10.47;;
7375;SDS011;3728;42.266;24.944;2024-03-08T13:19:07;11.80;;;9.83;;
7375;SDS011;3728;42.266;24.944;2024-03-08T13:21:34;11.33;;;9.90;;
7375;SDS011;3728;42.266;24.944;2024-03-08T13:24:05;12.93;;;9.30;;
7375;SDS011;3728;42.266;24.944;2024-03-08T13:26:35;14.50;;;9.67;;
7375;SDS011;3728;42.266;24.944;2024-03-08T13:29:06;13.13;;;9.87;;
7375;SDS011;3728;42.266;24.944;2024-03-08T13:31:36;16.93;;;9.50;;
7375;SDS011;3728;42.266;24.944;2024-03-08T13:34:05;12.27;;;9.70;;
7375;SDS011;3728;42.266;24.944;2024-03-08T13:36:35;12.73;;;9.03;;
7375;SDS011;3728;42.266;24.944;2024-03-08T13:39:06;12.60;;;9.40;;
7375;SDS011;3728;42.266;24.944;2024-03-08T13:41:42;12.13;;;9.40;;
7375;SDS011;3728;42.266;24.944;2024-03-08T13:44:11;11.17;;;9.70;;
7375;SDS011;3728;42.266;24.944;2024-03-08T13:46:43;12.23;;;9.40;;
7375;SDS011;3728;42.266;24.944;2024-03-08T13:49:15;14.47;;;9.00;;
7375;SDS011;3728;42.266;24.944;2024-03-08T13:51:42;18.27;;;9.60;;
7375;SDS011;3728;42.266;24.944;2024-03-08T13:54:09;11.80;;;9.87;;
7375;SDS011;3728;42.266;24.944;2024-03-08T13:56:37;13.07;;;9.17;;
7375;SDS011;3728;42.266;24.944;2024-03-08T13:59:04;10.13;;;8.97;;
7375;SDS011;3728;42.266;24.944;2024-03-08T14:01:32;11.77;;;9.00;;
7375;SDS011;3728;42.266;24.944;2024-03-08T14:04:03;13.17;;;9.13;;
7375;SDS011;3728;42.266;24.944;2024-03-08T14:06:30;11.43;;;8.93;;
7375;SDS011;3728;42.266;24.944;2024-03-08T14:08:57;10.23;;;8.60;;
7375;SDS011;3728;42.266;24.944;2024-03-08T14:11:29;14.40;;;9.40;;
7375;SDS011;3728;42.266;24.944;2024-03-08T14:14:00;10.23;;;8.40;;
7375;SDS011;3728;42.266;24.944;2024-03-08T14:16:29;10.67;;;9.53;;
7375;SDS011;3728;42.266;24.944;2024-03-08T14:18:59;10.07;;;8.63;;
7375;SDS011;3728;42.266;24.944;2024-03-08T14:21:32;10.80;;;8.03;;
7375;SDS011;3728;42.266;24.944;2024-03-08T14:24:00;14.97;;;8.40;;
7375;SDS011;3728;42.266;24.944;2024-03-08T14:26:27;14.63;;;8.90;;
7375;SDS011;3728;42.266;24.944;2024-03-08T14:28:54;10.80;;;9.10;;
7375;SDS011;3728;42.266;24.944;2024-03-08T14:31:21;9.80;;;7.83;;
7375;SDS011;3728;42.266;24.944;2024-03-08T14:33:52;13.17;;;8.10;;
7375;SDS011;3728;42.266;24.944;2024-03-08T14:36:19;11.93;;;9.30;;
7375;SDS011;3728;42.266;24.944;2024-03-08T14:38:46;12.10;;;8.57;;
7375;SDS011;3728;42.266;24.944;2024-03-08T14:41:16;12.77;;;8.93;;
7375;SDS011;3728;42.266;24.944;2024-03-08T14:43:43;10.40;;;8.30;;
7375;SDS011;3728;42.266;24.944;2024-03-08T14:46:14;9.47;;;7.60;;
7375;SDS011;3728;42.266;24.944;2024-03-08T14:48:46;10.03;;;8.10;;
7375;SDS011;3728;42.266;24.944;2024-03-08T14:51:18;9.50;;;7.83;;
7375;SDS011;3728;42.266;24.944;2024-03-08T14:53:48;11.87;;;8.10;;
7375;SDS011;3728;42.266;24.944;2024-03-08T14:56:16;9.43;;;7.37;;
7375;SDS011;3728;42.266;24.944;2024-03-08T14:58:44;10.27;;;8.47;;
7375;SDS011;3728;42.266;24.944;2024-03-08T15:01:13;11.40;;;8.30;;
7375;SDS011;3728;42.266;24.944;2024-03-08T15:03:41;10.10;;;8.00;;